Adirondack Regional Airport Saranac Lake US
ICAO: KSLK
IATA: SLK
Category: Medium
Scheduled Services: Yes

Elevation: 1663 ft
TransAlt. 18000 ft.

Airport Communications:
ASOS:124.175
BOSTON CNTR:120.35
BURLINGTON RDO:109.2
CTAF/UNICOM:123

KSLK Zoom In..

Runways:

(A) RW 05 length 6573 ft width 150 ft
---- / hdg 49

(B) RW 09 length 3998 ft width 100 ft
---- / hdg 93

(C) RW 23 length 6573 ft width 150 ft
ILS 108.90 / hdg 229

(D) RW 27 length 3998 ft width 100 ft
---- / hdg 273

Location; KSLK
Day. 03 / Time. 08.51 Zulu
* Altimeter: 29.91
* Temperature: -03° c. -26.6°f.
* Wind from: 240° Speed 05 kn.
Dewpoint: -04° c.
Visibility: 10 Statute Miles.
Clouds: Scattered 1600 ft.
Clouds: Overcast 2500 ft.

KSLK 030851Z AUTO 24005KT 10SM SCT016 OVC025 M03/M04 A2991 RMK AO2 SLP149 T10281039 50002

Going to: --> -->


Wind From 240°
Speed 05 kn.

 
 
jpsmedia worldairports.se 2020   terms of use